Time;durP1;ratioP1;P1;durP2;ratioP2;P2;SDS_P1;SDS_P2;PMS_P1;PMS_P2;Temp;Humidity;BMP_temperature;BMP_pressure;BME280_temperature;BME280_humidity;BME280_pressure;Samples;Min_cycle;Max_cycle;Signal;HPM_P1;HPM_P2
2022/04/04 00:03:33;;;;;;;11.60;3.80;;;;;;;2.26;61.73;100389.12;5223302;55;1136940;-71
2022/04/04 00:08:39;;;;;;;7.70;3.50;;;;;;;2.20;62.45;100383.70;5232468;55;1136972;-70
2022/04/04 00:13:44;;;;;;;5.87;3.27;;;;;;;2.20;63.32;100375.03;5232443;55;1135211;-70
2022/04/04 00:18:50;;;;;;;12.53;3.73;;;;;;;2.20;63.78;100366.75;5232296;55;1134913;-71
2022/04/04 00:23:56;;;;;;;5.93;3.27;;;;;;;2.22;64.94;100366.68;5232033;55;1137443;-71
2022/04/04 00:29:02;;;;;;;11.67;3.70;;;;;;;2.22;66.21;100355.79;5229607;55;1135123;-70
2022/04/04 00:34:08;;;;;;;9.27;3.30;;;;;;;2.25;65.95;100358.72;5213507;56;1137143;-70
2022/04/04 00:39:19;;;;;;;6.77;3.50;;;;;;;2.26;66.53;100361.27;5222959;56;1134898;-70
2022/04/04 00:44:25;;;;;;;4.67;2.10;;;;;;;2.28;68.40;100355.97;5219527;56;1135072;-71
2022/04/04 00:49:31;;;;;;;2.57;1.80;;;;;;;2.27;72.07;100356.44;5219603;56;1135168;-70
2022/04/04 00:54:36;;;;;;;4.57;2.60;;;;;;;2.28;72.76;100348.15;5219716;56;1135359;-70
2022/04/04 00:59:42;;;;;;;13.65;4.92;;;;;;;2.28;71.06;100337.25;5219093;56;1135159;-70
2022/04/04 01:04:49;;;;;;;10.63;3.63;;;;;;;2.31;73.50;100334.94;5177699;56;1136943;-71
2022/04/04 01:09:55;;;;;;;4.33;2.90;;;;;;;2.30;74.81;100333.23;5140181;56;1136974;-70
2022/04/04 01:15:01;;;;;;;3.80;2.80;;;;;;;2.27;75.03;100329.49;5190210;56;1134916;-71
2022/04/04 01:20:08;;;;;;;4.00;2.77;;;;;;;2.24;74.94;100323.95;5175121;56;1134881;-71
2022/04/04 01:25:13;;;;;;;5.63;2.80;;;;;;;2.15;78.09;100326.97;5193153;56;1135206;-70
2022/04/04 01:30:19;;;;;;;6.23;2.77;;;;;;;2.10;78.26;100315.46;5261808;55;1134865;-71
2022/04/04 01:35:26;;;;;;;11.27;5.03;;;;;;;2.07;79.15;100318.20;5317549;55;1134876;-70
2022/04/04 01:40:32;;;;;;;10.30;3.63;;;;;;;2.06;78.44;100318.27;5258668;55;1136990;-70
2022/04/04 01:51:01;;;;;;;8.20;3.40;;;;;;;2.03;80.26;100307.97;5228603;56;1132885;-71
2022/04/04 01:56:07;;;;;;;6.23;3.47;;;;;;;2.04;80.49;100301.84;5228597;56;1132792;-71
2022/04/04 02:01:17;;;;;;;9.73;4.43;;;;;;;2.03;79.62;100297.08;5228690;55;1133322;-70
2022/04/04 02:06:23;;;;;;;7.20;3.10;;;;;;;2.03;79.46;100295.78;5228522;55;1133301;-70
2022/04/04 02:11:29;;;;;;;7.40;3.60;;;;;;;2.02;80.60;100287.56;5228561;56;1132758;-69
2022/04/04 02:16:35;;;;;;;5.93;3.03;;;;;;;2.01;80.18;100288.48;5197556;56;1132776;-70
2022/04/04 02:21:41;;;;;;;7.33;3.17;;;;;;;1.99;79.99;100292.07;5184359;57;1132830;-71
2022/04/04 02:26:48;;;;;;;13.50;3.67;;;;;;;1.95;81.47;100280.11;5184360;56;1132761;-71
2022/04/04 02:31:53;;;;;;;52.20;16.83;;;;;;;1.93;81.87;100280.63;5047457;57;1135013;-70
2022/04/04 02:36:59;;;;;;;10.73;4.47;;;;;;;1.92;80.59;100274.57;5044555;58;1137552;-70
2022/04/04 02:42:05;;;;;;;10.30;3.70;;;;;;;1.94;81.59;100279.72;5047514;58;1135501;-69
2022/04/04 02:47:10;;;;;;;12.33;3.43;;;;;;;1.96;82.49;100272.67;5047442;58;1135201;-72
2022/04/04 02:52:17;;;;;;;7.07;2.60;;;;;;;1.93;82.81;100263.22;5108032;58;1135129;-71
2022/04/04 02:57:23;;;;;;;9.77;4.07;;;;;;;1.91;83.49;100257.69;5110217;57;1130768;-70
2022/04/04 03:02:28;;;;;;;4.17;2.80;;;;;;;1.92;82.49;100264.14;5110104;58;1130821;-70
2022/04/04 03:07:34;;;;;;;31.40;11.60;;;;;;;1.91;84.67;100262.91;5130063;57;1135039;-70
2022/04/04 03:12:45;;;;;;;10.17;3.40;;;;;;;1.90;84.96;100265.13;5131612;57;1139072;-69
2022/04/04 03:17:54;;;;;;;5.20;2.20;;;;;;;1.89;85.80;100250.39;5054995;57;1137197;-70
2022/04/04 03:23:02;;;;;;;9.20;3.37;;;;;;;1.88;86.75;100262.58;5133787;57;1134897;-71
2022/04/04 03:28:08;;;;;;;5.53;3.20;;;;;;;1.92;85.48;100255.02;5133889;57;1135005;-69
2022/04/04 03:33:15;;;;;;;10.23;3.10;;;;;;;1.89;85.48;100251.23;5142614;56;1135021;-70
2022/04/04 03:38:21;;;;;;;17.03;5.67;;;;;;;1.88;85.60;100243.02;5142799;56;1136956;-71
2022/04/04 03:43:26;;;;;;;10.70;3.83;;;;;;;1.83;86.59;100238.50;5142876;56;1137309;-69
2022/04/04 03:48:33;;;;;;;10.60;5.07;;;;;;;1.84;87.13;100247.14;5142890;56;1136987;-70
2022/04/04 03:53:39;;;;;;;4.77;2.50;;;;;;;1.80;87.44;100229.97;5142855;56;1137201;-71
2022/04/04 03:58:44;;;;;;;5.58;2.85;;;;;;;1.83;86.81;100227.23;5142723;56;1135148;-71
2022/04/04 04:03:50;;;;;;;3.70;2.80;;;;;;;1.81;87.11;100225.14;5142875;56;1135147;-69
2022/04/04 04:08:57;;;;;;;7.90;2.37;;;;;;;1.83;86.27;100224.62;5142082;56;1135041;-71
2022/04/04 04:14:03;;;;;;;4.07;3.23;;;;;;;1.79;86.89;100220.00;5141633;57;1134787;-69
2022/04/04 04:20:19;;;;;;;2.70;2.43;;;;;;;1.80;88.01;100217.78;5141946;57;1134956;-69
2022/04/04 04:24:16;;;;;;;5.83;3.47;;;;;;;1.82;88.29;100223.77;5112768;57;1135059;-70
2022/04/04 04:29:23;;;;;;;7.13;2.47;;;;;;;1.83;88.64;100210.28;5069386;57;1134914;-70
2022/04/04 04:34:28;;;;;;;1.93;1.63;;;;;;;1.85;88.92;100201.89;5138700;57;1134883;-69
2022/04/04 04:39:34;;;;;;;5.83;3.23;;;;;;;1.87;89.28;100203.52;5141715;56;1135021;-70
2022/04/04 04:44:41;;;;;;;7.77;3.20;;;;;;;1.88;87.82;100196.55;5141615;57;1135332;-70
2022/04/04 04:49:48;;;;;;;4.90;2.70;;;;;;;1.94;88.41;100193.66;5141830;57;1134912;-68
2022/04/04 04:54:55;;;;;;;6.87;4.37;;;;;;;1.97;88.43;100198.73;5141570;57;1134886;-69
2022/04/04 05:00:05;;;;;;;4.67;2.77;;;;;;;1.98;88.67;100203.03;5141556;57;1134910;-67
2022/04/04 05:05:11;;;;;;;8.23;2.33;;;;;;;2.01;88.23;100202.87;5141629;57;1134795;-67
2022/04/04 05:10:17;;;;;;;7.27;2.20;;;;;;;1.98;88.37;100200.42;5142492;57;1135117;-67
2022/04/04 05:15:24;;;;;;;5.23;2.63;;;;;;;2.02;88.01;100200.64;5142779;56;1134998;-68
2022/04/04 05:20:30;;;;;;;2.67;2.47;;;;;;;2.06;88.18;100193.07;5142728;56;1135068;-68
2022/04/04 05:25:35;;;;;;;7.27;2.23;;;;;;;2.10;87.66;100196.77;5142615;57;1134984;-69
2022/04/04 05:30:41;;;;;;;6.43;2.83;;;;;;;2.17;87.95;100193.39;5105485;57;1134874;-69
2022/04/04 05:35:47;;;;;;;8.77;2.33;;;;;;;2.22;87.47;100191.41;5054565;57;1135053;-69
2022/04/04 05:40:53;;;;;;;8.17;3.97;;;;;;;2.24;87.14;100190.04;5094222;57;1135226;-69
2022/04/04 05:45:59;;;;;;;2.93;2.20;;;;;;;2.30;86.86;100185.80;5110910;57;1134761;-68
2022/04/04 05:51:06;;;;;;;10.77;2.77;;;;;;;2.35;86.30;100188.59;5186223;55;1134897;-67
2022/04/04 05:56:12;;;;;;;3.87;2.50;;;;;;;2.40;85.71;100187.06;5228382;55;1136745;-67
2022/04/04 06:01:19;;;;;;;4.70;2.37;;;;;;;2.43;85.18;100181.70;5228379;55;1134937;-70
2022/04/04 06:06:26;;;;;;;4.70;2.67;;;;;;;2.47;84.75;100180.61;5228249;56;1135198;-68
2022/04/04 06:11:32;;;;;;;6.40;2.90;;;;;;;2.46;84.72;100177.15;5240575;55;1132869;-70
2022/04/04 06:16:38;;;;;;;5.83;2.97;;;;;;;2.46;84.46;100177.15;5242398;55;1133024;-70
2022/04/04 06:21:45;;;;;;;6.10;2.97;;;;;;;2.59;83.96;100180.02;5242328;55;1132974;-71
2022/04/04 06:26:50;;;;;;;4.63;2.20;;;;;;;2.76;83.23;100176.53;5242132;55;1132861;-70
2022/04/04 06:31:58;;;;;;;5.27;3.63;;;;;;;2.87;82.30;100166.40;5181864;55;1132843;-70
2022/04/04 06:37:04;;;;;;;7.00;3.00;;;;;;;3.04;82.18;100168.14;5155771;56;1132804;-71
2022/04/04 06:42:11;;;;;;;3.93;2.70;;;;;;;3.25;81.03;100162.23;5155885;56;1133013;-70
2022/04/04 06:47:16;;;;;;;7.50;2.20;;;;;;;3.43;79.83;100152.09;5156025;56;1132942;-70
2022/04/04 06:52:22;;;;;;;7.53;3.10;;;;;;;3.55;79.62;100148.81;5155912;56;1132825;-68
2022/04/04 06:57:28;;;;;;;4.77;2.27;;;;;;;3.82;78.42;100141.20;5082295;57;1132847;-68
2022/04/04 07:02:34;;;;;;;8.07;2.00;;;;;;;3.82;78.42;100141.20;5067651;57;1133071;-68
2022/04/04 07:07:40;;;;;;;4.53;2.00;;;;;;;3.78;78.16;100148.87;5227458;55;1132750;-68
2022/04/04 07:12:46;;;;;;;11.33;3.60;;;;;;;3.80;78.70;100145.25;5150828;56;1132816;-67
2022/04/04 07:17:52;;;;;;;4.27;2.43;;;;;;;3.86;77.62;100142.27;5142358;57;1135170;-67
2022/04/04 07:22:58;;;;;;;3.17;2.27;;;;;;;3.95;77.13;100125.70;5142254;57;1133155;-68
2022/04/04 07:28:04;;;;;;;6.17;2.70;;;;;;;3.91;76.99;100111.94;5108145;57;1133361;-67
2022/04/04 07:33:15;;;;;;;3.00;2.03;;;;;;;3.99;76.72;100114.95;5223797;56;1132785;-67
2022/04/04 07:38:18;;;;;;;5.43;2.63;;;;;;;4.16;76.04;100100.90;5228241;56;1130662;-67
2022/04/04 07:43:23;;;;;;;7.10;2.45;;;;;;;4.26;75.42;100085.52;5228303;56;1130765;-68
2022/04/04 07:48:32;;;;;;;7.10;2.52;;;;;;;4.52;73.45;100085.66;5233667;56;1134841;-70
2022/04/04 07:53:37;;;;;;;8.00;2.55;;;;;;;4.53;72.25;100071.64;5144347;56;1135252;-69
2022/04/04 07:58:44;;;;;;;3.52;2.05;;;;;;;4.70;71.20;100072.41;5224115;55;1134832;-67
2022/04/04 08:03:50;;;;;;;6.87;2.30;;;;;;;4.95;68.58;100068.65;5228552;55;1134863;-67
2022/04/04 08:08:56;;;;;;;15.33;2.33;;;;;;;5.05;67.55;100054.49;5228645;56;1134885;-68
2022/04/04 08:14:04;;;;;;;2.60;2.40;;;;;;;5.20;67.26;100064.02;5226755;56;1136956;-68
2022/04/04 08:19:11;;;;;;;2.70;2.20;;;;;;;5.42;66.51;100047.79;5219415;56;1134870;-67
2022/04/04 08:24:17;;;;;;;2.83;1.90;;;;;;;5.57;64.79;100024.52;5253154;55;1134912;-68
2022/04/04 08:29:23;;;;;;;1.97;1.80;;;;;;;5.68;64.29;100029.89;5290928;55;1135040;-68
2022/04/04 08:34:29;;;;;;;1.90;1.63;;;;;;;5.81;62.43;100032.55;5227732;56;1135072;-67
2022/04/04 08:39:35;;;;;;;2.70;1.53;;;;;;;5.82;61.20;100010.15;5227596;55;1135075;-68
2022/04/04 08:44:41;;;;;;;12.07;4.40;;;;;;;6.01;61.67;100000.63;5227898;55;1134821;-67
2022/04/04 08:49:47;;;;;;;8.80;2.10;;;;;;;6.29;59.38;100003.06;5231617;55;1136822;-69
2022/04/04 08:54:53;;;;;;;11.40;2.30;;;;;;;6.23;57.75;100011.84;5204217;55;1134941;-69
2022/04/04 08:59:59;;;;;;;2.27;1.90;;;;;;;6.24;57.48;99996.46;5130580;57;1137006;-70
2022/04/04 09:05:07;;;;;;;2.27;1.70;;;;;;;6.30;57.96;99989.45;5156306;56;1132984;-69
2022/04/04 09:10:18;;;;;;;9.23;3.17;;;;;;;6.36;58.13;99981.17;5199093;56;1132688;-72
2022/04/04 09:15:24;;;;;;;11.10;1.73;;;;;;;6.57;57.73;99984.92;5197948;55;1132941;-72
2022/04/04 09:20:30;;;;;;;12.53;2.27;;;;;;;6.42;55.82;99965.44;5196260;56;1134827;-72
2022/04/04 09:25:36;;;;;;;3.43;2.10;;;;;;;6.23;56.27;99954.08;5167992;56;1134883;-72
2022/04/04 09:30:44;;;;;;;5.73;1.80;;;;;;;6.46;56.70;99949.84;5194452;56;1132734;-72
2022/04/04 09:35:52;;;;;;;14.70;3.27;;;;;;;6.45;56.88;99933.71;5230589;56;1132729;-71
2022/04/04 09:40:57;;;;;;;5.63;1.70;;;;;;;6.55;55.66;99923.79;5234006;56;1134985;-71
2022/04/04 09:46:12;;;;;;;5.10;1.90;;;;;;;6.69;55.31;99903.10;5145724;57;1133036;-71
2022/04/04 09:51:23;;;;;;;7.43;1.73;;;;;;;7.14;52.39;99888.89;5125873;57;1132798;-71
2022/04/04 09:56:29;;;;;;;16.60;2.50;;;;;;;7.35;51.71;99880.23;5101569;57;1132830;-70
2022/04/04 10:01:35;;;;;;;9.77;2.73;;;;;;;7.53;51.07;99861.41;5023255;57;1134828;-72
2022/04/04 10:06:47;;;;;;;22.70;3.03;;;;;;;7.75;50.42;99851.77;5039739;57;1133053;-71
2022/04/04 10:11:53;;;;;;;26.80;3.47;;;;;;;7.64;49.50;99845.16;5057195;57;1134951;-71
2022/04/04 10:17:00;;;;;;;7.30;1.23;;;;;;;7.40;49.90;99816.30;5200341;55;1134444;-71
2022/04/04 10:22:06;;;;;;;26.47;10.27;;;;;;;7.36;50.63;99814.00;5188858;55;1132976;-71
2022/04/04 10:27:13;;;;;;;19.20;3.13;;;;;;;7.48;50.96;99807.84;5180466;56;1137216;-72
2022/04/04 10:32:28;;;;;;;23.53;2.97;;;;;;;7.65;51.18;99789.41;5203921;55;1135026;-71
2022/04/04 10:37:43;;;;;;;6.60;2.83;;;;;;;7.61;49.42;99778.31;5234579;55;1132832;-71
2022/04/04 10:43:11;;;;;;;12.07;2.97;;;;;;;7.79;49.29;99756.31;5222770;55;1130709;-70
2022/04/04 10:48:19;;;;;;;26.83;4.63;;;;;;;7.85;48.57;99773.40;5230617;55;1132752;-71
2022/04/04 10:53:44;;;;;;;8.67;2.33;;;;;;;7.71;49.16;99752.10;5237981;55;1132822;-71
2022/04/04 10:58:52;;;;;;;4.83;2.87;;;;;;;7.73;48.08;99731.30;5238348;55;1130652;-71
2022/04/04 11:04:00;;;;;;;34.87;3.60;;;;;;;8.03;46.87;99688.53;5240164;55;1128627;-71
2022/04/04 11:09:32;;;;;;;16.13;2.90;;;;;;;8.30;45.19;99734.20;5243601;55;1130873;-71
2022/04/04 11:14:46;;;;;;;14.53;3.50;;;;;;;8.35;44.17;99704.41;5177955;56;1134994;-71
2022/04/04 11:20:05;;;;;;;33.77;3.17;;;;;;;8.45;44.30;99682.92;5154860;57;1134909;-71
2022/04/04 11:25:09;;;;;;;22.63;2.93;;;;;;;8.78;43.24;99687.20;5154818;57;1134874;-71
2022/04/04 11:30:18;;;;;;;26.13;2.30;;;;;;;8.67;42.97;99656.95;5150556;57;1134952;-71
2022/04/04 11:35:27;;;;;;;12.53;1.83;;;;;;;8.59;41.98;99672.55;5150735;57;1135214;-71
2022/04/04 11:40:45;;;;;;;20.13;4.90;;;;;;;8.67;41.55;99642.45;5155496;57;1135061;-71
2022/04/04 11:45:46;;;;;;;7.23;1.87;;;;;;;8.75;41.42;99623.34;5154125;57;1134988;-71
2022/04/04 11:50:57;;;;;;;17.40;3.27;;;;;;;8.77;41.49;99620.94;5156122;57;1132706;-71
2022/04/04 11:56:08;;;;;;;14.47;3.07;;;;;;;8.72;40.22;99599.39;5156084;57;1134902;-71
2022/04/04 12:01:12;;;;;;;29.23;3.27;;;;;;;8.63;40.38;99612.52;5156080;57;1135069;-70
2022/04/04 12:06:18;;;;;;;16.70;4.15;;;;;;;8.64;41.51;99566.75;5125367;57;1134980;-71
2022/04/04 12:11:30;;;;;;;64.43;5.80;;;;;;;8.73;40.09;99587.88;5199733;56;1134934;-71
2022/04/04 12:16:40;;;;;;;31.48;5.17;;;;;;;8.80;39.85;99577.66;5230716;56;1134914;-69
2022/04/04 12:21:47;;;;;;;28.80;4.33;;;;;;;8.78;39.97;99526.38;5226541;56;1134967;-70
2022/04/04 12:27:12;;;;;;;28.87;5.13;;;;;;;8.78;40.14;99507.09;5228785;56;1135104;-71
2022/04/04 12:32:21;;;;;;;19.40;2.50;;;;;;;8.88;40.02;99482.07;5228656;56;1135105;-69
2022/04/04 12:37:40;;;;;;;52.13;4.87;;;;;;;8.88;39.70;99480.75;5228721;56;1134858;-71
2022/04/04 12:42:48;;;;;;;55.17;5.07;;;;;;;8.90;39.23;99463.00;5228567;56;1134942;-70
2022/04/04 12:48:10;;;;;;;53.57;5.53;;;;;;;8.90;39.23;99463.00;5228674;56;1132926;-73
2022/04/04 12:53:20;;;;;;;55.70;4.90;;;;;;;8.90;38.03;99463.83;5228545;56;1132800;-71
2022/04/04 12:58:26;;;;;;;24.87;4.03;;;;;;;8.80;38.65;99427.39;5228741;56;1132923;-73
2022/04/04 13:03:32;;;;;;;19.53;3.20;;;;;;;8.80;38.42;99430.02;5270921;55;1132795;-72
2022/04/04 13:08:38;;;;;;;25.03;4.57;;;;;;;8.67;38.17;99407.02;5306987;55;1132915;-73
2022/04/04 13:14:07;;;;;;;35.13;3.27;;;;;;;8.59;38.29;99371.27;5305634;55;1133016;-71
2022/04/04 13:19:16;;;;;;;33.00;5.97;;;;;;;8.59;38.84;99378.69;5307984;55;1132805;-72
2022/04/04 13:24:26;;;;;;;47.13;4.07;;;;;;;8.75;39.11;99370.27;5307982;55;1133039;-72
2022/04/04 13:29:33;;;;;;;27.00;5.43;;;;;;;8.82;37.54;99372.73;5308027;55;1130988;-71
2022/04/04 13:34:41;;;;;;;62.93;13.73;;;;;;;8.79;37.67;99354.54;5328325;55;21152;-71
2022/04/04 13:39:46;;;;;;;49.42;8.38;;;;;;;8.80;37.59;99328.53;5308318;55;1132719;-72
2022/04/04 13:44:52;;;;;;;29.45;5.92;;;;;;;8.80;37.87;99328.53;5308135;55;1134903;-73
2022/04/04 13:50:00;;;;;;;30.00;4.53;;;;;;;8.73;37.20;99297.08;5307970;55;1134991;-73
2022/04/04 13:55:08;;;;;;;22.40;4.63;;;;;;;8.76;38.10;99296.33;5307747;55;1134826;-72
2022/04/04 14:00:15;;;;;;;24.50;4.27;;;;;;;8.74;37.71;99267.11;5307987;55;1135067;-72
2022/04/04 14:05:20;;;;;;;18.93;4.93;;;;;;;8.70;37.63;99273.17;5264145;55;1134925;-73
2022/04/04 14:10:27;;;;;;;35.90;8.87;;;;;;;8.67;37.95;99254.98;5247010;55;1134893;-72
2022/04/04 14:15:32;;;;;;;45.47;6.37;;;;;;;8.70;38.49;99229.67;5294005;55;1135011;-72
2022/04/04 14:20:39;;;;;;;18.03;5.23;;;;;;;8.75;38.34;99232.70;5230451;55;1134716;-72
2022/04/04 14:25:45;;;;;;;14.37;3.60;;;;;;;8.69;37.00;99224.05;5306539;55;1134903;-72
2022/04/04 14:30:55;;;;;;;38.60;5.60;;;;;;;8.65;36.33;99209.48;5288413;55;1134971;-71
2022/04/04 14:36:01;;;;;;;59.30;5.90;;;;;;;8.64;36.70;99199.08;5215316;56;1135085;-71
2022/04/04 14:41:08;;;;;;;28.13;4.57;;;;;;;8.62;36.73;99179.93;5211226;56;1134834;-72
2022/04/04 14:46:14;;;;;;;38.17;5.70;;;;;;;8.53;36.59;99163.16;5117725;57;1134853;-73
2022/04/04 14:51:20;;;;;;;29.90;4.67;;;;;;;8.46;36.12;99176.05;5205755;56;1134880;-74
2022/04/04 14:56:26;;;;;;;74.70;7.40;;;;;;;8.43;36.38;99168.89;5189019;56;1135051;-71
2022/04/04 15:01:32;;;;;;;82.93;10.03;;;;;;;8.43;36.46;99158.36;5204762;56;1134948;-71
2022/04/04 15:06:38;;;;;;;32.43;3.67;;;;;;;8.34;36.63;99133.69;5203037;56;1137141;-75
2022/04/04 15:11:44;;;;;;;40.73;6.10;;;;;;;8.27;37.02;99160.19;5156933;56;1134801;-71
2022/04/04 15:16:50;;;;;;;35.57;4.90;;;;;;;8.16;38.76;99149.80;5183331;56;1134892;-75
2022/04/04 15:21:57;;;;;;;77.70;11.27;;;;;;;7.98;41.76;99150.11;5217360;55;1134865;-72
2022/04/04 15:27:04;;;;;;;118.10;24.60;;;;;;;7.71;43.48;99150.75;5172232;55;1137155;-74
2022/04/04 15:32:10;;;;;;;59.03;17.70;;;;;;;7.50;44.51;99131.08;5213063;56;1139041;-73
2022/04/04 15:37:18;;;;;;;100.33;24.37;;;;;;;7.38;44.86;99130.34;5153692;56;1137088;-74
2022/04/04 15:42:24;;;;;;;66.83;13.03;;;;;;;7.30;47.24;99127.56;5187201;56;1138974;-74
2022/04/04 15:47:30;;;;;;;59.63;7.37;;;;;;;6.84;51.58;99121.94;5186937;56;1137288;-75
2022/04/04 15:52:36;;;;;;;59.50;6.07;;;;;;;6.84;51.58;99121.94;5252319;55;1134909;-72
2022/04/04 15:57:41;;;;;;;81.33;6.90;;;;;;;6.48;54.79;99125.83;5232534;55;1135022;-74
2022/04/04 16:02:47;;;;;;;104.67;9.37;;;;;;;6.48;54.79;99125.83;5237466;55;1135128;-71
2022/04/04 16:07:53;;;;;;;27.90;6.43;;;;;;;6.30;57.73;99128.17;5273623;55;1136943;-74
2022/04/04 16:12:59;;;;;;;37.87;6.27;;;;;;;6.06;59.25;99131.02;5268866;55;1134887;-71
2022/04/04 16:18:05;;;;;;;89.53;38.50;;;;;;;5.90;59.36;99088.14;5307745;55;1134300;-74
2022/04/04 16:23:11;;;;;;;37.33;7.13;;;;;;;5.91;58.27;99091.11;5307024;55;1136963;-72
2022/04/04 16:28:20;;;;;;;67.77;11.53;;;;;;;5.97;56.86;99084.52;5278277;55;1134876;-74
2022/04/04 16:33:26;;;;;;;61.43;9.43;;;;;;;6.06;56.22;99069.83;5279833;55;1136956;-73
2022/04/04 16:38:32;;;;;;;39.83;5.87;;;;;;;6.10;54.83;99075.19;5272171;55;1134942;-73
2022/04/04 16:43:38;;;;;;;58.20;8.73;;;;;;;6.13;55.00;99046.03;5245063;55;1132875;-72
2022/04/04 16:48:44;;;;;;;115.20;22.80;;;;;;;6.05;55.51;99029.62;5229351;55;1132797;-71
2022/04/04 16:53:49;;;;;;;63.40;8.83;;;;;;;6.03;55.81;99024.14;5270750;55;1136993;-72
2022/04/04 16:58:55;;;;;;;75.87;17.50;;;;;;;5.95;57.72;99024.31;5307104;55;1132972;-72
2022/04/04 17:04:04;;;;;;;53.00;9.27;;;;;;;5.76;62.15;99059.53;5306948;55;1134878;-72
2022/04/04 17:09:09;;;;;;;48.40;10.85;;;;;;;5.53;65.26;99022.03;5301597;55;1132836;-70
2022/04/04 17:14:15;;;;;;;47.47;9.60;;;;;;;5.31;67.19;99005.06;5231119;55;1134899;-69
2022/04/04 17:19:22;;;;;;;21.93;7.10;;;;;;;5.11;70.93;99032.02;5218882;56;1132921;-69
2022/04/04 17:24:28;;;;;;;23.63;6.63;;;;;;;4.82;74.89;98985.36;5235096;55;1133035;-70
2022/04/04 17:29:34;;;;;;;60.60;11.93;;;;;;;4.65;77.61;99002.86;5240768;55;1132802;-70
2022/04/04 17:34:41;;;;;;;36.97;9.03;;;;;;;4.46;79.54;98992.14;5247187;55;1134984;-70
2022/04/04 17:39:48;;;;;;;27.77;9.80;;;;;;;4.39;81.18;98989.17;5239879;55;1132799;-70
2022/04/04 17:44:55;;;;;;;18.43;11.00;;;;;;;4.21;85.75;98975.70;5245731;55;1132735;-69
2022/04/04 17:50:00;;;;;;;33.93;12.07;;;;;;;3.92;88.48;98981.47;5240616;55;1134884;-70
2022/04/04 17:55:07;;;;;;;23.62;9.95;;;;;;;3.60;95.71;98983.84;5226869;56;1134867;-69
2022/04/04 18:00:13;;;;;;;27.90;12.13;;;;;;;3.45;98.85;98980.58;5225583;55;1132826;-69
2022/04/04 18:05:20;;;;;;;21.77;12.17;;;;;;;3.32;100.00;98984.55;5284306;55;1135090;-70
2022/04/04 18:10:27;;;;;;;32.03;13.67;;;;;;;3.23;100.00;98966.91;5274726;55;1134894;-71
2022/04/04 18:15:33;;;;;;;56.87;24.83;;;;;;;3.08;100.00;98947.95;5243081;55;1135001;-69
2022/04/04 18:20:39;;;;;;;32.37;12.37;;;;;;;3.10;100.00;98949.98;5247666;55;1138904;-69
2022/04/04 18:25:48;;;;;;;35.80;18.57;;;;;;;3.06;100.00;98935.95;5253729;55;1138956;-68
2022/04/04 18:30:52;;;;;;;29.03;15.27;;;;;;;3.02;100.00;98915.77;5268228;55;1139162;-70
2022/04/04 18:35:58;;;;;;;21.70;8.80;;;;;;;2.92;100.00;98912.13;5231404;55;1139034;-69
2022/04/04 18:41:04;;;;;;;16.37;9.38;;;;;;;2.81;100.00;98897.72;5237652;55;1137288;-70
2022/04/04 18:46:11;;;;;;;17.70;10.03;;;;;;;2.75;100.00;98900.79;5225803;55;1137032;-68
2022/04/04 18:51:18;;;;;;;15.38;8.83;;;;;;;2.69;100.00;98887.69;5227414;55;1139271;-69
2022/04/04 18:56:24;;;;;;;19.13;8.00;;;;;;;2.59;100.00;98885.86;5240867;55;1137110;-70
2022/04/04 19:01:30;;;;;;;12.07;8.67;;;;;;;2.54;100.00;98861.85;5234215;55;1136921;-69
2022/04/04 19:06:36;;;;;;;26.40;14.27;;;;;;;2.47;100.00;98859.66;5232984;55;1137060;-69
2022/04/04 19:11:42;;;;;;;10.13;7.10;;;;;;;2.45;100.00;98845.89;5243597;55;1139244;-70
2022/04/04 19:16:48;;;;;;;15.53;8.47;;;;;;;2.43;100.00;98862.15;5223817;55;1136989;-70
2022/04/04 19:21:55;;;;;;;13.70;7.93;;;;;;;2.42;100.00;98821.34;5217847;56;1137112;-70
2022/04/04 19:27:01;;;;;;;8.13;5.87;;;;;;;2.39;100.00;98828.08;5221149;55;1136981;-69
2022/04/04 19:32:08;;;;;;;15.27;7.43;;;;;;;2.37;100.00;98831.73;5242395;55;1134812;-69
2022/04/04 19:37:17;;;;;;;9.30;7.07;;;;;;;2.35;100.00;98797.92;5271728;55;1136855;-69
2022/04/04 19:42:21;;;;;;;11.53;8.10;;;;;;;2.33;100.00;98808.94;5306229;55;1134865;-69
2022/04/04 19:47:27;;;;;;;8.17;6.67;;;;;;;2.36;100.00;98807.42;5306294;55;1137100;-69
2022/04/04 19:52:33;;;;;;;12.98;8.20;;;;;;;2.36;100.00;98788.33;5306353;55;1135100;-69
2022/04/04 19:57:39;;;;;;;15.40;8.90;;;;;;;2.43;100.00;98787.80;5285384;55;1137079;-69
2022/04/04 20:02:45;;;;;;;10.40;6.03;;;;;;;2.46;100.00;98775.80;5233299;55;1136894;-69
2022/04/04 20:07:51;;;;;;;10.30;7.10;;;;;;;2.50;100.00;98743.81;5232471;55;1136924;-69
2022/04/04 20:12:59;;;;;;;9.03;7.50;;;;;;;2.51;100.00;98738.95;5230965;55;1136970;-69
2022/04/04 20:18:05;;;;;;;8.17;6.30;;;;;;;2.53;100.00;98729.71;5252040;55;1134974;-69
2022/04/04 20:23:12;;;;;;;16.23;7.73;;;;;;;2.53;100.00;98710.97;5272040;55;1134876;-68
2022/04/04 20:28:18;;;;;;;11.67;7.20;;;;;;;2.56;100.00;98713.84;5278715;55;1137263;-71
2022/04/04 20:33:23;;;;;;;9.90;7.53;;;;;;;2.57;100.00;98706.37;5275294;55;1136983;-70
2022/04/04 20:38:29;;;;;;;10.03;7.10;;;;;;;2.61;100.00;98699.95;5221857;56;1134883;-69
2022/04/04 20:43:35;;;;;;;9.63;7.08;;;;;;;2.66;100.00;98703.90;5221803;56;1137247;-69
2022/04/04 20:48:45;;;;;;;9.53;6.33;;;;;;;2.72;100.00;98702.63;5221836;56;1134911;-70
2022/04/04 20:53:51;;;;;;;11.33;8.47;;;;;;;2.78;100.00;98683.88;5221842;56;1135080;-69
2022/04/04 20:58:57;;;;;;;15.73;10.60;;;;;;;2.82;100.00;98671.79;5221758;56;1137068;-69
2022/04/04 21:04:03;;;;;;;12.50;8.83;;;;;;;2.89;100.00;98655.67;5221702;56;1139030;-69
2022/04/04 21:09:09;;;;;;;10.03;7.63;;;;;;;2.93;100.00;98680.11;5225160;56;1137019;-69
2022/04/04 21:14:15;;;;;;;11.60;9.27;;;;;;;2.94;100.00;98667.41;5278482;56;1137143;-70
2022/04/04 21:19:21;;;;;;;9.43;6.53;;;;;;;2.92;100.00;98654.11;5278396;56;1136450;-69
2022/04/04 21:24:26;;;;;;;11.87;8.47;;;;;;;2.96;100.00;98652.47;5256619;55;1134961;-70
2022/04/04 21:29:33;;;;;;;15.40;8.87;;;;;;;2.97;100.00;98648.91;5251666;55;1136888;-70
2022/04/04 21:34:38;;;;;;;13.22;8.68;;;;;;;2.98;100.00;98649.27;5251621;55;1134947;-70
2022/04/04 21:39:48;;;;;;;11.97;8.97;;;;;;;3.00;100.00;98635.63;5251854;55;1135063;-68
2022/04/04 21:44:55;;;;;;;11.63;8.30;;;;;;;3.00;100.00;98641.32;5253630;55;1134881;-69
2022/04/04 21:50:01;;;;;;;11.60;8.43;;;;;;;3.00;100.00;98633.02;5239863;55;1134861;-70
2022/04/04 21:55:10;;;;;;;8.97;7.57;;;;;;;3.03;100.00;98631.48;5254253;55;1134974;-69
2022/04/04 22:00:24;;;;;;;10.97;8.30;;;;;;;3.07;100.00;98620.30;5217671;56;1133059;-69
2022/04/04 22:05:30;;;;;;;8.37;6.93;;;;;;;3.11;100.00;98611.28;5306632;55;1134838;-69
2022/04/04 22:10:36;;;;;;;11.30;8.20;;;;;;;3.13;100.00;98608.92;5306879;55;1132756;-69
2022/04/04 22:15:42;;;;;;;10.77;8.90;;;;;;;3.16;100.00;98613.08;5306659;55;1134862;-70
2022/04/04 22:20:48;;;;;;;9.13;7.93;;;;;;;3.22;100.00;98609.97;5306588;55;1135099;-69
2022/04/04 22:25:54;;;;;;;8.50;6.17;;;;;;;3.26;100.00;98610.09;5306502;55;1133035;-70
2022/04/04 22:31:00;;;;;;;9.90;8.03;;;;;;;3.29;100.00;98602.50;5306787;55;1132909;-69
2022/04/04 22:36:06;;;;;;;9.48;8.58;;;;;;;3.32;100.00;98591.81;5306503;55;1132724;-69
2022/04/04 22:41:12;;;;;;;11.43;8.70;;;;;;;3.33;100.00;98581.24;5306686;55;1132758;-71
2022/04/04 22:46:18;;;;;;;15.53;10.58;;;;;;;3.35;100.00;98579.82;5306685;55;1134859;-69
2022/04/04 22:51:23;;;;;;;11.23;6.47;;;;;;;3.37;100.00;98585.25;5306602;55;1134979;-69
2022/04/04 22:56:30;;;;;;;16.83;10.40;;;;;;;3.41;100.00;98585.38;5306571;55;1132803;-70
2022/04/04 23:01:36;;;;;;;12.03;8.93;;;;;;;3.48;100.00;98579.20;5306660;55;1138997;-70
2022/04/04 23:06:41;;;;;;;9.75;7.28;;;;;;;3.53;100.00;98583.09;5306779;55;1136901;-70
2022/04/04 23:11:47;;;;;;;11.77;9.10;;;;;;;3.58;100.00;98583.20;5254937;55;1134835;-69
2022/04/04 23:16:53;;;;;;;10.03;8.20;;;;;;;3.63;100.00;98584.51;5218330;56;1136913;-70
2022/04/04 23:21:59;;;;;;;10.07;8.33;;;;;;;3.65;100.00;98564.31;5217948;56;1137113;-69
2022/04/04 23:27:05;;;;;;;9.30;8.03;;;;;;;3.71;100.00;98574.25;5218981;56;1136958;-70
2022/04/04 23:32:11;;;;;;;7.90;6.97;;;;;;;3.75;100.00;98556.55;5219201;56;1134872;-69